Flanders, Canada
Current Conditions -  °F | °C
As of 4:48 PM on Thursday 18 Dec 2014 (Local Time) from KCDD Reporting Station
Overcast Overcast  
Wind Chill: 19°   Ceiling: 1900
Heat Index: 19°   Visibility: 10mi
Dew Point: 18°   Wind: 0mph
Humidity: 93%   Direction: NA
Pressure: 30.26"   Gusts: NA
Location:  48.73°N, 92.08°W
Report Text: KCDD 182248Z AUTO 00000KT 10SM OVC019 M07/M08 A3026 RMK AO2
Loading
Personal Weather Stations






























Interactive Weather Map New forecast layout! Learn more

10-Day Weather Forecast

Advertisements
Track Severe Weather on mobile